Ann Arbor Township, Michigan
Current Conditions -  °F | °C
As of 12:53 AM on Friday 28 Nov 2014 (Local Time) from KARB Reporting Station
Overcast Overcast  
Wind Chill: 11°   Ceiling: 3400
Heat Index: 21°   Visibility: 10mi
Dew Point:   Wind: 8mph
Humidity: 57%   Direction: 300°WNW
Pressure: 30.3"   Gusts: NA
Location:  42.3281°N, 83.7037°W
Report Text: KARB 280553Z AUTO 30007KT 10SM OVC034 M06/M13 A3030 RMK AO2 SLP271 60000 T10611133 11022 21061 50002
Loading
Personal Weather Stations






























Interactive Weather Map New forecast layout! Learn more

10-Day Weather Forecast

Advertisements
Track Severe Weather on mobile